Kezdőlap
METAR-TAF:

METAR-TAF

Repülőterek :

General Wayne Downing Peoria International Airport

Peoria, Illinois, Amerikai Egyesült Államok

földrajzi szélesség: 40-40-03N, földrajzi hosszúság: 089-41-02W, magasság: 201 m

Jelenlegi meteorológiai megfigyelések

A jelentés 44 perccel ezelõtt készült, 02:54 UTC
Északi szél 3 kt
Hőmérséklet 23°C
Páratartalom 50%
Légköri nyomás 1017 hPa
Látótávolság: 16.1 km
Derült ég

METAR: KPIA 150254Z 35003KT 10SM CLR 23/12 A3003 RMK AO2 SLP163 T02280122 53009

Idő: 22:38 (03:38 UTC)

Előrejelzés

A jelentés 4 órával és 18 perccel ezelõtt készült, 23:20 UTC
Az előrejelzés 15-én 00 óra UTC és 15-én 24 óra UTC között érvényes
Különbözõ irányokból fújó szél 3 kt
Látótávolság: 10 km
Kevés felhő 25000 lábon
15-én 1400 órától UTC szerint
Délkeleti szél 7 kt
Látótávolság: 10 km
Kevés felhő 5000 lábon
Szórványos felhőzet 25000 lábon

TAF: KPIA 142320Z 1500/1524 VRB03KT P6SM FEW250 FM151400 14007KT P6SM FEW050 SCT250

Meteorológiai megfigyelések és előrejelzések több, mint 4000 repülőtéren (METAR és TAF jelentéseket).

A térképen piros és sárga pontok jelzik az elérhető meteorológiai állomásokat.

Mozgassa az egeret a pont fölött, hogy megjelenjen az állomás neve.

Azután kattintson az időjárási megfigyelések és előrejelzések megtekintéséhez.

A térkép megváltoztatása: kattintson a fekete keresztel jelölt zöld gombra ráközelítéshez, a vonallal jelölt zöld gombra távolításhoz, vagy a zöld nyilakra a szomszédos térképek eléréséhez.


METAR-TAF: